EDT,Max TemperatureF,Mean TemperatureF,Min TemperatureF,Max Dew PointF,MeanDew PointF,Min DewpointF,Max Humidity, Mean Humidity, Min Humidity, Max Sea Level PressureIn, Mean Sea Level PressureIn, Min Sea Level PressureIn, Max VisibilityMiles, Mean VisibilityMiles, Min VisibilityMiles, Max Wind SpeedMPH, Mean Wind SpeedMPH, Max Gust SpeedMPH,PrecipitationIn, CloudCover, Events, WindDirDegrees
2014-3-1,35,20,5,28,14,0,82,68,41,30.45,30.31,30.12,10,10,10,16,4,23,0.00,2,,207
2014-3-2,36,34,32,25,23,20,75,64,52,30.10,30.02,29.96,10,10,10,10,6,,0.00,6,,253
2014-3-3,32,23,10,22,10,-5,85,59,38,30.29,30.08,29.95,10,7,1,14,7,20,0.02,5,Snow,356
2014-3-4,30,16,1,12,2,-5,76,49,26,30.37,30.30,30.25,10,10,10,10,3,,0.00,2,,255
2014-3-5,34,28,19,21,16,11,78,64,48,30.44,30.29,30.23,10,10,5,14,4,21,0.00,7,Snow,14
2014-3-6,28,20,10,12,8,1,92,61,41,30.60,30.55,30.46,10,10,10,14,7,20,0.00,0,,17
2014-3-7,39,24,8,27,18,4,88,71,49,30.51,30.23,29.92,10,10,10,10,3,,0.00,4,,35
2014-3-8,57,42,28,31,25,21,92,59,25,29.89,29.78,29.68,10,10,10,13,6,21,0.00,1,,336
2014-3-9,43,36,30,25,12,9,62,38,26,29.94,29.89,29.85,10,10,10,17,6,23,0.00,3,,304
2014-3-10,45,36,28,32,26,9,92,75,38,29.90,29.81,29.67,10,6,1,12,5,,0.01,7,Snow,223
2014-3-11,61,48,37,35,31,23,93,59,24,29.72,29.60,29.53,10,10,7,15,7,25,0.00,1,,258
2014-3-12,55,46,37,53,43,28,97,81,55,29.71,29.32,28.95,10,7,2,23,8,34,0.73,7,Rain,178
2014-3-13,44,34,17,49,19,-1,96,78,44,29.94,29.31,28.95,10,4,0,18,11,34,0.05,7,Fog-Rain-Snow,313
2014-3-14,39,24,12,31,13,-1,76,56,40,30.21,30.08,29.97,10,10,10,20,12,33,0.00,1,,239
2014-3-15,57,44,32,40,33,26,89,68,32,29.95,29.81,29.68,10,10,9,20,11,31,0.00,2,Rain,232
2014-3-16,39,34,28,26,8,2,58,37,26,30.18,30.07,29.91,10,10,10,17,10,25,0.00,1,,300
2014-3-17,30,24,16,14,6,-3,88,49,31,30.16,30.11,30.04,10,10,10,13,8,23,0.00,3,,29
2014-3-18,39,26,12,18,14,8,92,61,33,30.35,30.28,30.16,10,10,10,12,4,17,0.00,0,,48
2014-3-19,45,32,19,34,24,16,92,72,49,30.38,30.23,30.00,10,10,10,14,4,,0.00,3,,121
2014-3-20,55,46,37,45,38,25,100,78,36,29.95,29.72,29.62,10,7,1,20,10,28,0.62,6,Rain,214
2014-3-21,46,40,32,24,21,18,59,48,34,30.05,29.88,29.78,10,10,10,22,12,31,0.00,2,,276
2014-3-22,61,42,24,39,26,18,84,56,31,30.07,29.89,29.67,10,10,10,28,8,38,0.00,1,,256
2014-3-23,45,36,27,26,15,4,85,47,21,30.02,29.96,29.89,10,10,10,16,5,24,0.00,3,,293
2014-3-24,34,24,16,9,-2,-6,62,33,19,30.16,30.10,30.04,10,10,10,13,9,24,0.00,0,,328
2014-3-25,37,25,14,14,9,3,78,50,28,30.16,30.08,29.88,10,10,10,15,4,23,0.00,2,,161
2014-3-26,36,31,26,25,15,-2,85,58,26,30.00,29.67,29.53,10,6,0,24,16,40,0.02,6,Fog-Snow,351
2014-3-27,41,30,21,26,8,-3,67,41,20,30.32,30.26,30.03,10,10,10,16,12,29,0.00,0,,258
2014-3-28,55,45,35,45,39,28,89,76,63,30.27,30.12,30.00,10,10,5,29,14,46,0.05,4,Rain,214
2014-3-29,52,43,34,44,40,33,100,93,66,30.22,30.11,29.92,10,4,0,14,5,20,0.83,5,Fog-Rain,36
2014-3-30,57,47,37,56,46,34,100,95,89,29.91,29.65,29.55,10,4,1,24,10,37,4.13,8,Rain,53
2014-3-31,37,36,34,34,33,31,93,88,79,29.96,29.77,29.64,10,8,2,20,13,32,0.07,8,Rain-Snow,3